Hampton, SC

8:44 PM EDT on October 22, 2014 (GMT -0400)
Plantation | Change Station
CLOSE
Current Station
Airport
Location: Sylvania,
Elevation: 187 ft
Nearby Weather Stations

Elev 187 ft 32.65 °N, 81.60 °W | Updated 9 minutes ago

Clear
Clear
57 °F
Feels Like 57 °F
N
0
Wind Variable Wind from North

Today
High -- | Low -- °F
--% Chance of Precip.
Yesterday
High -- | Low -- °F
Precip. -- in
7:33 AM 6:43 PM
Waning Crescent, 1% visible
Pressure 30.07 in
Visibility 10.0 miles
Clouds Clear
Dew Point 54 °F
Humidity 87%
Rainfall 0.00 in
Snow Depth Not available.
UV 0 out of 12
Pollen 4.80 out of 12
Air Quality Not available.
Flu Activity Sporadic
METAR KJYL 230035Z AUTO 00000KT 10SM CLR 14/12 A3007 RMK AO2 T01410120

More Conditions Fewer Conditions

Pressure 30.07 in
Visibility 10.0 miles
Clouds Clear
Dew Point 54 °F
Humidity 87%
Rainfall 0.00 in
Snow Depth Not available.
UV 0 out of 12
Pollen 4.80 out of 12
Air Quality Not available.
Flu Activity Sporadic
METAR KJYL 230035Z AUTO 00000KT 10SM CLR 14/12 A3007 RMK AO2 T01410120

More Conditions Fewer Conditions

10-Day Weather Forecast

Almanac

Astronomy

Oct. 22, 2014 Rise Set
Actual Time 7:33 AM EDT 6:43 PM EDT
Civil Twilight 7:08 AM EDT 7:08 PM EDT
Nautical Twilight 6:39 AM EDT 7:37 PM EDT
Astronomical Twilight 6:11 AM EDT 8:05 PM EDT
Moon 6:17 AM EDT (10/22) 6:06 PM EDT (10/22)
Length of Visible Light 11h 59m
Length of Day
11h 09m
Tomorrow will be 1m 53s shorter.
Waning Crescent, 1% of the Moon is Illuminated
Today
Waning Crescent
Oct 23
New
Oct 30
First Quarter
Nov 6
Full
Nov 14
Last Quarter

Today's Extremes

State Highs State Lows

Community

WunderPhotos

Upload Photos

1,764,098 photos uploaded!

WunderBlogs® & News

Nearby

Snow Depth

Station Depth Elevation
No new snow has been reported.

Earthquake Activity

City Distance Mag. Time & Date
No recent earthquake activity has been reported nearby.
Minimum magnitude displayed is 2.5.

Coastal Water Temperatures

Place Temperature
No Stations Reporting

Nearby Weather Stations